Terminal Aerodrome Forecast
Issued by NWS

Home | Current Version | Previous Version | Text Only | Print | Product List | Glossary On
Versions: 1 2 3 4 5 6 7 8 9 10 11 12 13 14 15 16 17 18 19
000
FTUS44 KBMX 030100 AAA
TAFTOI
TAF AMD
KTOI 030113Z 0301/0324 00000KT 1/2SM -DZ FG BKN003 OVC017
     FM031500 14004KT 5SM BR OVC008
     FM031900 20007KT 5SM BR OVC015=

USA.gov is the U.S. government's official web portal to all federal, state and local government web resources and services.